Portada
METAR-TAF:

METAR-TAF

Aeroports :

Vientiane, Laos

latitud: 17-57N, longitud: 102-34E, altitud: 171 m

Observació

L'informe es va fer fa 1 hora i 17 minuts, a les 16:30 UTC
Vent 4 kt del Est
Temperatura 26°C
Humitat 79%
Pressió 1015 hPa
Visibilitat: 4000 m
Núvols disperses a una alçada de 5000 ft
boirina

METAR: VLVT 141630Z 09004KT 4000 BR SCT050 26/22 Q1015 NOSIG

Hora: 00:47 (17:47 UTC)

Pronòstic

L'informe es va fer fa 47 minuts, a les 17:00 UTC
Pronòstic vàlid del 14 a les 18 UTC al 15 a les 18 UTC
Vent 6 kt del Est
Visibilitat: 5000 m
Escasses núvols a una alçada de 2000 ft
Núvols disperses a una alçada de 5000 ft
boirina

TAF: VLVT 141700Z 1418/1518 09006KT 5000 BR FEW020 SCT050

Observacions i pronòstics meteorològics de més de 4000 aeroports (METAR i TAF).

Les estacions disponibles són els punts grocs i vermells al mapa.

Posi el ratolí al punt desitjat per veure el nom de l'estació.

Feu clic per veure les observacions i els pronòstics meteorològics.

Per canviar el mapa: feu clic els botons verds amb una creu de color negre per apropar; al botó verd amb un guió per allunyar la imatge; o en les fletxes verdes per a mapes adjacents.


METAR-TAF: